sensor_id;sensor_type;location;lat;lon;timestamp;P1;durP1;ratioP1;P2;durP2;ratioP2
56581;SDS011;42463;52.214;21.238;2022-09-09T00:02:34;13.40;;;6.60;;
56581;SDS011;42463;52.214;21.238;2022-09-09T00:05:00;11.50;;;6.60;;
56581;SDS011;42463;52.214;21.238;2022-09-09T00:07:40;12.60;;;6.70;;
56581;SDS011;42463;52.214;21.238;2022-09-09T00:10:13;12.80;;;7.10;;
56581;SDS011;42463;52.214;21.238;2022-09-09T00:12:47;11.00;;;7.10;;
56581;SDS011;42463;52.214;21.238;2022-09-09T00:15:19;12.30;;;7.80;;
56581;SDS011;42463;52.214;21.238;2022-09-09T00:17:47;14.60;;;7.40;;
56581;SDS011;42463;52.214;21.238;2022-09-09T00:20:16;10.30;;;6.60;;
56581;SDS011;42463;52.214;21.238;2022-09-09T00:22:48;11.50;;;7.60;;
56581;SDS011;42463;52.214;21.238;2022-09-09T00:25:19;10.90;;;7.00;;
56581;SDS011;42463;52.214;21.238;2022-09-09T00:27:49;14.50;;;7.80;;
56581;SDS011;42463;52.214;21.238;2022-09-09T00:30:16;13.00;;;6.90;;
56581;SDS011;42463;52.214;21.238;2022-09-09T00:32:43;13.00;;;7.40;;
56581;SDS011;42463;52.214;21.238;2022-09-09T00:35:14;14.00;;;7.40;;
56581;SDS011;42463;52.214;21.238;2022-09-09T00:37:44;10.60;;;6.40;;
56581;SDS011;42463;52.214;21.238;2022-09-09T00:40:18;15.50;;;7.20;;
56581;SDS011;42463;52.214;21.238;2022-09-09T00:42:48;14.70;;;7.20;;
56581;SDS011;42463;52.214;21.238;2022-09-09T00:45:29;12.50;;;7.00;;
56581;SDS011;42463;52.214;21.238;2022-09-09T00:48:05;12.30;;;7.40;;
56581;SDS011;42463;52.214;21.238;2022-09-09T00:50:37;11.60;;;6.90;;
56581;SDS011;42463;52.214;21.238;2022-09-09T00:53:19;12.00;;;7.10;;
56581;SDS011;42463;52.214;21.238;2022-09-09T00:55:51;11.90;;;7.10;;
56581;SDS011;42463;52.214;21.238;2022-09-09T00:58:21;12.30;;;7.50;;
56581;SDS011;42463;52.214;21.238;2022-09-09T01:04:12;14.90;;;8.00;;
56581;SDS011;42463;52.214;21.238;2022-09-09T01:06:41;10.30;;;6.90;;
56581;SDS011;42463;52.214;21.238;2022-09-09T01:09:15;16.00;;;7.40;;
56581;SDS011;42463;52.214;21.238;2022-09-09T01:11:55;11.60;;;7.70;;
56581;SDS011;42463;52.214;21.238;2022-09-09T01:14:32;16.00;;;7.90;;
56581;SDS011;42463;52.214;21.238;2022-09-09T01:17:05;15.10;;;7.80;;
56581;SDS011;42463;52.214;21.238;2022-09-09T01:19:40;12.30;;;7.60;;
56581;SDS011;42463;52.214;21.238;2022-09-09T01:22:18;12.40;;;8.10;;
56581;SDS011;42463;52.214;21.238;2022-09-09T01:25:01;12.70;;;7.40;;
56581;SDS011;42463;52.214;21.238;2022-09-09T01:27:48;13.50;;;8.10;;
56581;SDS011;42463;52.214;21.238;2022-09-09T01:30:16;16.30;;;8.20;;
56581;SDS011;42463;52.214;21.238;2022-09-09T01:32:44;15.60;;;8.30;;
56581;SDS011;42463;52.214;21.238;2022-09-09T01:35:12;13.70;;;8.10;;
56581;SDS011;42463;52.214;21.238;2022-09-09T01:37:44;14.30;;;8.30;;
56581;SDS011;42463;52.214;21.238;2022-09-09T01:40:09;12.40;;;8.40;;
56581;SDS011;42463;52.214;21.238;2022-09-09T01:42:34;14.80;;;8.90;;
56581;SDS011;42463;52.214;21.238;2022-09-09T01:44:59;15.70;;;8.10;;
56581;SDS011;42463;52.214;21.238;2022-09-09T01:47:23;15.50;;;8.70;;
56581;SDS011;42463;52.214;21.238;2022-09-09T01:50:01;14.10;;;8.70;;
56581;SDS011;42463;52.214;21.238;2022-09-09T01:52:26;16.40;;;8.90;;
56581;SDS011;42463;52.214;21.238;2022-09-09T01:54:52;17.10;;;9.40;;
56581;SDS011;42463;52.214;21.238;2022-09-09T01:57:20;14.20;;;8.30;;
56581;SDS011;42463;52.214;21.238;2022-09-09T01:59:53;16.20;;;9.50;;
56581;SDS011;42463;52.214;21.238;2022-09-09T02:02:36;17.60;;;8.30;;
56581;SDS011;42463;52.214;21.238;2022-09-09T02:05:14;17.10;;;9.40;;
56581;SDS011;42463;52.214;21.238;2022-09-09T02:07:46;15.80;;;9.40;;
56581;SDS011;42463;52.214;21.238;2022-09-09T02:10:23;17.60;;;9.10;;
56581;SDS011;42463;52.214;21.238;2022-09-09T02:13:02;15.40;;;8.60;;
56581;SDS011;42463;52.214;21.238;2022-09-09T02:15:32;17.70;;;9.50;;
56581;SDS011;42463;52.214;21.238;2022-09-09T02:18:06;16.60;;;10.40;;
56581;SDS011;42463;52.214;21.238;2022-09-09T02:20:32;13.30;;;8.50;;
56581;SDS011;42463;52.214;21.238;2022-09-09T02:22:57;15.90;;;9.60;;
56581;SDS011;42463;52.214;21.238;2022-09-09T02:25:24;15.40;;;9.70;;
56581;SDS011;42463;52.214;21.238;2022-09-09T02:27:56;17.00;;;9.50;;
56581;SDS011;42463;52.214;21.238;2022-09-09T02:30:21;18.10;;;9.90;;
56581;SDS011;42463;52.214;21.238;2022-09-09T02:32:50;17.60;;;10.00;;
56581;SDS011;42463;52.214;21.238;2022-09-09T02:35:23;16.90;;;9.70;;
56581;SDS011;42463;52.214;21.238;2022-09-09T02:37:50;15.70;;;9.60;;
56581;SDS011;42463;52.214;21.238;2022-09-09T02:40:18;14.30;;;8.90;;
56581;SDS011;42463;52.214;21.238;2022-09-09T02:42:48;13.00;;;8.30;;
56581;SDS011;42463;52.214;21.238;2022-09-09T02:45:15;15.80;;;8.90;;
56581;SDS011;42463;52.214;21.238;2022-09-09T02:47:43;12.70;;;8.80;;
56581;SDS011;42463;52.214;21.238;2022-09-09T02:50:15;13.80;;;8.90;;
56581;SDS011;42463;52.214;21.238;2022-09-09T02:52:47;14.30;;;8.30;;
56581;SDS011;42463;52.214;21.238;2022-09-09T02:55:23;14.80;;;8.70;;
56581;SDS011;42463;52.214;21.238;2022-09-09T02:57:54;14.50;;;9.20;;
56581;SDS011;42463;52.214;21.238;2022-09-09T03:00:25;17.10;;;9.40;;
56581;SDS011;42463;52.214;21.238;2022-09-09T03:02:53;11.10;;;6.70;;
56581;SDS011;42463;52.214;21.238;2022-09-09T03:05:19;14.20;;;8.60;;
56581;SDS011;42463;52.214;21.238;2022-09-09T03:07:44;11.90;;;8.20;;
56581;SDS011;42463;52.214;21.238;2022-09-09T03:10:09;12.60;;;7.70;;
56581;SDS011;42463;52.214;21.238;2022-09-09T03:12:34;15.80;;;8.10;;
56581;SDS011;42463;52.214;21.238;2022-09-09T03:15:00;14.70;;;8.30;;
56581;SDS011;42463;52.214;21.238;2022-09-09T03:17:25;13.50;;;8.00;;
56581;SDS011;42463;52.214;21.238;2022-09-09T03:19:50;13.40;;;8.30;;
56581;SDS011;42463;52.214;21.238;2022-09-09T03:22:16;13.40;;;8.20;;
56581;SDS011;42463;52.214;21.238;2022-09-09T03:24:41;12.90;;;8.40;;
56581;SDS011;42463;52.214;21.238;2022-09-09T03:27:06;15.20;;;8.10;;
56581;SDS011;42463;52.214;21.238;2022-09-09T03:29:31;13.50;;;8.00;;
56581;SDS011;42463;52.214;21.238;2022-09-09T03:31:56;13.80;;;8.60;;
56581;SDS011;42463;52.214;21.238;2022-09-09T03:34:21;10.80;;;7.80;;
56581;SDS011;42463;52.214;21.238;2022-09-09T03:36:46;13.90;;;7.90;;
56581;SDS011;42463;52.214;21.238;2022-09-09T03:39:11;11.30;;;7.40;;
56581;SDS011;42463;52.214;21.238;2022-09-09T03:41:37;10.40;;;7.80;;
56581;SDS011;42463;52.214;21.238;2022-09-09T03:44:02;13.90;;;7.60;;
56581;SDS011;42463;52.214;21.238;2022-09-09T03:46:29;11.90;;;8.10;;
56581;SDS011;42463;52.214;21.238;2022-09-09T03:48:54;13.20;;;8.00;;
56581;SDS011;42463;52.214;21.238;2022-09-09T03:51:19;10.90;;;8.10;;
56581;SDS011;42463;52.214;21.238;2022-09-09T03:53:44;11.70;;;7.70;;
56581;SDS011;42463;52.214;21.238;2022-09-09T03:56:10;14.10;;;8.10;;
56581;SDS011;42463;52.214;21.238;2022-09-09T03:58:34;12.10;;;7.60;;
56581;SDS011;42463;52.214;21.238;2022-09-09T04:01:03;11.30;;;7.10;;
56581;SDS011;42463;52.214;21.238;2022-09-09T04:03:30;20.50;;;7.60;;
56581;SDS011;42463;52.214;21.238;2022-09-09T04:05:55;10.80;;;7.10;;
56581;SDS011;42463;52.214;21.238;2022-09-09T04:08:21;9.70;;;7.20;;
56581;SDS011;42463;52.214;21.238;2022-09-09T04:10:47;9.90;;;7.00;;
56581;SDS011;42463;52.214;21.238;2022-09-09T04:13:13;10.10;;;6.50;;
56581;SDS011;42463;52.214;21.238;2022-09-09T04:15:39;9.90;;;6.90;;
56581;SDS011;42463;52.214;21.238;2022-09-09T04:18:04;9.10;;;6.40;;
56581;SDS011;42463;52.214;21.238;2022-09-09T04:20:29;10.30;;;7.00;;
56581;SDS011;42463;52.214;21.238;2022-09-09T04:22:53;8.90;;;6.40;;
56581;SDS011;42463;52.214;21.238;2022-09-09T04:25:18;9.50;;;6.80;;
56581;SDS011;42463;52.214;21.238;2022-09-09T04:27:42;8.00;;;6.00;;
56581;SDS011;42463;52.214;21.238;2022-09-09T04:30:07;11.40;;;6.70;;
56581;SDS011;42463;52.214;21.238;2022-09-09T04:32:35;7.40;;;5.50;;
56581;SDS011;42463;52.214;21.238;2022-09-09T04:34:59;8.50;;;5.80;;
56581;SDS011;42463;52.214;21.238;2022-09-09T04:37:23;9.00;;;6.30;;
56581;SDS011;42463;52.214;21.238;2022-09-09T04:39:48;8.80;;;6.50;;
56581;SDS011;42463;52.214;21.238;2022-09-09T04:42:12;7.90;;;5.70;;
56581;SDS011;42463;52.214;21.238;2022-09-09T04:44:38;7.50;;;5.50;;
56581;SDS011;42463;52.214;21.238;2022-09-09T04:47:03;8.20;;;5.70;;
56581;SDS011;42463;52.214;21.238;2022-09-09T04:49:28;7.30;;;5.50;;
56581;SDS011;42463;52.214;21.238;2022-09-09T04:51:53;7.00;;;5.40;;
56581;SDS011;42463;52.214;21.238;2022-09-09T04:54:17;6.40;;;5.50;;
56581;SDS011;42463;52.214;21.238;2022-09-09T04:56:43;6.90;;;5.20;;
56581;SDS011;42463;52.214;21.238;2022-09-09T04:59:07;7.30;;;5.40;;
56581;SDS011;42463;52.214;21.238;2022-09-09T05:01:37;6.10;;;4.90;;
56581;SDS011;42463;52.214;21.238;2022-09-09T05:04:02;7.40;;;5.60;;
56581;SDS011;42463;52.214;21.238;2022-09-09T05:06:28;7.70;;;5.10;;
56581;SDS011;42463;52.214;21.238;2022-09-09T05:08:54;7.80;;;5.20;;
56581;SDS011;42463;52.214;21.238;2022-09-09T05:11:21;6.90;;;5.20;;
56581;SDS011;42463;52.214;21.238;2022-09-09T05:13:49;6.40;;;4.30;;
56581;SDS011;42463;52.214;21.238;2022-09-09T05:16:14;8.20;;;5.00;;
56581;SDS011;42463;52.214;21.238;2022-09-09T05:18:40;6.30;;;5.00;;
56581;SDS011;42463;52.214;21.238;2022-09-09T05:21:05;6.80;;;4.80;;
56581;SDS011;42463;52.214;21.238;2022-09-09T05:23:30;5.80;;;4.50;;
56581;SDS011;42463;52.214;21.238;2022-09-09T05:25:58;4.90;;;4.20;;
56581;SDS011;42463;52.214;21.238;2022-09-09T05:28:25;6.40;;;4.40;;
56581;SDS011;42463;52.214;21.238;2022-09-09T05:30:56;6.00;;;4.60;;
56581;SDS011;42463;52.214;21.238;2022-09-09T05:33:22;6.10;;;4.50;;
56581;SDS011;42463;52.214;21.238;2022-09-09T05:35:48;4.90;;;4.20;;
56581;SDS011;42463;52.214;21.238;2022-09-09T05:38:19;7.50;;;4.70;;
56581;SDS011;42463;52.214;21.238;2022-09-09T05:40:48;5.30;;;4.50;;
56581;SDS011;42463;52.214;21.238;2022-09-09T05:43:14;5.50;;;4.30;;
56581;SDS011;42463;52.214;21.238;2022-09-09T05:45:38;7.40;;;4.50;;
56581;SDS011;42463;52.214;21.238;2022-09-09T05:48:04;5.00;;;4.40;;
56581;SDS011;42463;52.214;21.238;2022-09-09T05:50:30;4.90;;;4.40;;
56581;SDS011;42463;52.214;21.238;2022-09-09T05:52:55;6.70;;;4.70;;
56581;SDS011;42463;52.214;21.238;2022-09-09T05:55:19;6.30;;;5.20;;
56581;SDS011;42463;52.214;21.238;2022-09-09T05:57:49;5.70;;;5.00;;
56581;SDS011;42463;52.214;21.238;2022-09-09T06:00:14;6.50;;;4.60;;
56581;SDS011;42463;52.214;21.238;2022-09-09T06:02:40;8.10;;;5.20;;
56581;SDS011;42463;52.214;21.238;2022-09-09T06:05:07;8.50;;;5.50;;
56581;SDS011;42463;52.214;21.238;2022-09-09T06:07:32;9.60;;;5.70;;
56581;SDS011;42463;52.214;21.238;2022-09-09T06:09:57;7.40;;;6.00;;
56581;SDS011;42463;52.214;21.238;2022-09-09T06:12:21;7.70;;;6.00;;
56581;SDS011;42463;52.214;21.238;2022-09-09T06:14:46;7.60;;;5.30;;
56581;SDS011;42463;52.214;21.238;2022-09-09T06:17:12;7.90;;;6.20;;
56581;SDS011;42463;52.214;21.238;2022-09-09T06:19:37;9.00;;;5.90;;
56581;SDS011;42463;52.214;21.238;2022-09-09T06:22:02;7.20;;;5.70;;
56581;SDS011;42463;52.214;21.238;2022-09-09T06:24:28;9.10;;;6.20;;
56581;SDS011;42463;52.214;21.238;2022-09-09T06:26:53;6.60;;;5.90;;
56581;SDS011;42463;52.214;21.238;2022-09-09T06:29:21;9.70;;;6.80;;
56581;SDS011;42463;52.214;21.238;2022-09-09T06:31:46;10.70;;;7.00;;
56581;SDS011;42463;52.214;21.238;2022-09-09T06:34:15;10.30;;;6.70;;
56581;SDS011;42463;52.214;21.238;2022-09-09T06:36:44;8.30;;;6.50;;
56581;SDS011;42463;52.214;21.238;2022-09-09T06:39:09;9.60;;;6.90;;
56581;SDS011;42463;52.214;21.238;2022-09-09T06:41:35;8.60;;;7.20;;
56581;SDS011;42463;52.214;21.238;2022-09-09T06:44:03;11.00;;;7.60;;
56581;SDS011;42463;52.214;21.238;2022-09-09T06:46:34;10.70;;;7.30;;
56581;SDS011;42463;52.214;21.238;2022-09-09T06:48:58;9.40;;;7.40;;
56581;SDS011;42463;52.214;21.238;2022-09-09T06:51:24;9.80;;;7.70;;
56581;SDS011;42463;52.214;21.238;2022-09-09T06:53:51;10.40;;;7.80;;
56581;SDS011;42463;52.214;21.238;2022-09-09T06:56:21;9.50;;;7.10;;
56581;SDS011;42463;52.214;21.238;2022-09-09T06:58:49;13.40;;;7.80;;
56581;SDS011;42463;52.214;21.238;2022-09-09T07:01:20;10.40;;;7.40;;
56581;SDS011;42463;52.214;21.238;2022-09-09T07:03:46;10.50;;;7.70;;
56581;SDS011;42463;52.214;21.238;2022-09-09T07:06:14;11.90;;;7.90;;
56581;SDS011;42463;52.214;21.238;2022-09-09T07:09:18;10.90;;;8.20;;
56581;SDS011;42463;52.214;21.238;2022-09-09T07:11:44;11.30;;;8.20;;
56581;SDS011;42463;52.214;21.238;2022-09-09T07:14:11;11.20;;;7.90;;
56581;SDS011;42463;52.214;21.238;2022-09-09T07:16:36;13.90;;;8.50;;
56581;SDS011;42463;52.214;21.238;2022-09-09T07:19:02;11.40;;;8.00;;
56581;SDS011;42463;52.214;21.238;2022-09-09T07:21:28;11.80;;;8.10;;
56581;SDS011;42463;52.214;21.238;2022-09-09T07:23:54;11.80;;;8.20;;
56581;SDS011;42463;52.214;21.238;2022-09-09T07:26:19;12.50;;;8.30;;
56581;SDS011;42463;52.214;21.238;2022-09-09T07:28:46;11.70;;;8.10;;
56581;SDS011;42463;52.214;21.238;2022-09-09T07:31:12;10.30;;;7.70;;
56581;SDS011;42463;52.214;21.238;2022-09-09T07:33:38;11.00;;;7.90;;
56581;SDS011;42463;52.214;21.238;2022-09-09T07:36:04;9.70;;;7.70;;
56581;SDS011;42463;52.214;21.238;2022-09-09T07:38:30;11.30;;;8.00;;
56581;SDS011;42463;52.214;21.238;2022-09-09T07:40:54;10.80;;;8.30;;
56581;SDS011;42463;52.214;21.238;2022-09-09T07:43:29;12.40;;;9.00;;
56581;SDS011;42463;52.214;21.238;2022-09-09T07:45:58;11.50;;;8.20;;
56581;SDS011;42463;52.214;21.238;2022-09-09T07:48:24;12.00;;;8.70;;
56581;SDS011;42463;52.214;21.238;2022-09-09T07:50:48;11.40;;;8.40;;
56581;SDS011;42463;52.214;21.238;2022-09-09T07:53:13;13.60;;;8.80;;
56581;SDS011;42463;52.214;21.238;2022-09-09T07:55:37;10.70;;;8.20;;
56581;SDS011;42463;52.214;21.238;2022-09-09T07:58:02;11.90;;;8.60;;
56581;SDS011;42463;52.214;21.238;2022-09-09T08:00:26;14.70;;;8.80;;
56581;SDS011;42463;52.214;21.238;2022-09-09T08:02:52;8.90;;;5.70;;
56581;SDS011;42463;52.214;21.238;2022-09-09T08:05:17;10.10;;;7.90;;
56581;SDS011;42463;52.214;21.238;2022-09-09T08:07:42;12.80;;;8.70;;
56581;SDS011;42463;52.214;21.238;2022-09-09T08:10:07;11.50;;;9.00;;
56581;SDS011;42463;52.214;21.238;2022-09-09T08:12:34;15.10;;;9.00;;
56581;SDS011;42463;52.214;21.238;2022-09-09T08:14:59;12.10;;;8.90;;
56581;SDS011;42463;52.214;21.238;2022-09-09T08:17:26;12.30;;;8.40;;
56581;SDS011;42463;52.214;21.238;2022-09-09T08:19:52;15.60;;;8.60;;
56581;SDS011;42463;52.214;21.238;2022-09-09T08:22:19;13.80;;;9.20;;
56581;SDS011;42463;52.214;21.238;2022-09-09T08:24:44;12.60;;;8.70;;
56581;SDS011;42463;52.214;21.238;2022-09-09T08:27:09;11.70;;;8.20;;
56581;SDS011;42463;52.214;21.238;2022-09-09T08:29:34;10.90;;;8.60;;
56581;SDS011;42463;52.214;21.238;2022-09-09T08:31:59;13.00;;;9.20;;
56581;SDS011;42463;52.214;21.238;2022-09-09T08:34:24;12.40;;;8.20;;
56581;SDS011;42463;52.214;21.238;2022-09-09T08:36:50;13.80;;;9.00;;
56581;SDS011;42463;52.214;21.238;2022-09-09T08:39:19;11.40;;;8.50;;
56581;SDS011;42463;52.214;21.238;2022-09-09T08:41:49;9.60;;;7.50;;
56581;SDS011;42463;52.214;21.238;2022-09-09T08:44:23;12.10;;;8.70;;
56581;SDS011;42463;52.214;21.238;2022-09-09T08:47:04;12.30;;;8.60;;
56581;SDS011;42463;52.214;21.238;2022-09-09T08:49:43;13.10;;;8.60;;
56581;SDS011;42463;52.214;21.238;2022-09-09T08:52:19;13.20;;;9.10;;
56581;SDS011;42463;52.214;21.238;2022-09-09T08:54:49;11.80;;;9.30;;
56581;SDS011;42463;52.214;21.238;2022-09-09T08:57:18;10.30;;;9.00;;
56581;SDS011;42463;52.214;21.238;2022-09-09T08:59:48;13.40;;;8.80;;
56581;SDS011;42463;52.214;21.238;2022-09-09T09:02:16;11.50;;;9.00;;
56581;SDS011;42463;52.214;21.238;2022-09-09T09:04:49;11.70;;;9.00;;
56581;SDS011;42463;52.214;21.238;2022-09-09T09:07:24;12.90;;;9.10;;
56581;SDS011;42463;52.214;21.238;2022-09-09T09:10:00;15.00;;;9.10;;
56581;SDS011;42463;52.214;21.238;2022-09-09T09:12:35;14.20;;;9.30;;
56581;SDS011;42463;52.214;21.238;2022-09-09T09:15:05;17.70;;;12.70;;
56581;SDS011;42463;52.214;21.238;2022-09-09T09:17:40;15.80;;;10.90;;
56581;SDS011;42463;52.214;21.238;2022-09-09T09:20:11;15.00;;;10.40;;
56581;SDS011;42463;52.214;21.238;2022-09-09T09:22:39;12.90;;;9.20;;
56581;SDS011;42463;52.214;21.238;2022-09-09T09:25:11;14.10;;;9.50;;
56581;SDS011;42463;52.214;21.238;2022-09-09T09:27:41;15.30;;;9.30;;
56581;SDS011;42463;52.214;21.238;2022-09-09T09:30:14;16.70;;;10.30;;
56581;SDS011;42463;52.214;21.238;2022-09-09T09:32:42;15.50;;;10.40;;
56581;SDS011;42463;52.214;21.238;2022-09-09T09:35:13;16.60;;;11.20;;
56581;SDS011;42463;52.214;21.238;2022-09-09T09:37:39;17.80;;;11.10;;
56581;SDS011;42463;52.214;21.238;2022-09-09T09:40:10;17.00;;;10.80;;
56581;SDS011;42463;52.214;21.238;2022-09-09T09:42:37;16.70;;;11.30;;
56581;SDS011;42463;52.214;21.238;2022-09-09T09:45:16;18.50;;;11.10;;
56581;SDS011;42463;52.214;21.238;2022-09-09T09:47:45;15.70;;;10.70;;
56581;SDS011;42463;52.214;21.238;2022-09-09T09:50:20;19.70;;;11.90;;
56581;SDS011;42463;52.214;21.238;2022-09-09T09:52:54;15.70;;;11.10;;
56581;SDS011;42463;52.214;21.238;2022-09-09T09:55:20;19.70;;;12.00;;
56581;SDS011;42463;52.214;21.238;2022-09-09T09:57:46;21.60;;;12.70;;
56581;SDS011;42463;52.214;21.238;2022-09-09T10:00:14;16.90;;;11.60;;
56581;SDS011;42463;52.214;21.238;2022-09-09T10:02:44;19.50;;;12.50;;
56581;SDS011;42463;52.214;21.238;2022-09-09T10:05:15;17.20;;;11.80;;
56581;SDS011;42463;52.214;21.238;2022-09-09T10:07:43;19.20;;;13.20;;
56581;SDS011;42463;52.214;21.238;2022-09-09T10:10:18;17.50;;;11.50;;
56581;SDS011;42463;52.214;21.238;2022-09-09T10:12:50;17.10;;;12.30;;
56581;SDS011;42463;52.214;21.238;2022-09-09T10:15:29;20.50;;;13.50;;
56581;SDS011;42463;52.214;21.238;2022-09-09T10:18:04;23.30;;;14.00;;
56581;SDS011;42463;52.214;21.238;2022-09-09T10:20:42;23.20;;;13.80;;
56581;SDS011;42463;52.214;21.238;2022-09-09T10:23:17;21.80;;;14.20;;
56581;SDS011;42463;52.214;21.238;2022-09-09T10:26:00;24.20;;;14.80;;
56581;SDS011;42463;52.214;21.238;2022-09-09T10:28:54;21.50;;;13.50;;
56581;SDS011;42463;52.214;21.238;2022-09-09T10:31:33;22.70;;;14.30;;
56581;SDS011;42463;52.214;21.238;2022-09-09T10:34:10;23.80;;;13.70;;
56581;SDS011;42463;52.214;21.238;2022-09-09T10:36:47;19.90;;;14.30;;
56581;SDS011;42463;52.214;21.238;2022-09-09T10:39:15;24.10;;;14.30;;
56581;SDS011;42463;52.214;21.238;2022-09-09T10:41:50;20.90;;;14.00;;
56581;SDS011;42463;52.214;21.238;2022-09-09T10:44:29;24.20;;;14.40;;
56581;SDS011;42463;52.214;21.238;2022-09-09T10:50:22;26.20;;;14.40;;
56581;SDS011;42463;52.214;21.238;2022-09-09T10:52:59;19.40;;;13.20;;
56581;SDS011;42463;52.214;21.238;2022-09-09T10:55:33;21.20;;;13.60;;
56581;SDS011;42463;52.214;21.238;2022-09-09T10:58:02;21.80;;;13.60;;
56581;SDS011;42463;52.214;21.238;2022-09-09T11:00:30;22.00;;;13.70;;
56581;SDS011;42463;52.214;21.238;2022-09-09T11:03:03;20.60;;;12.80;;
56581;SDS011;42463;52.214;21.238;2022-09-09T11:05:31;22.90;;;13.60;;
56581;SDS011;42463;52.214;21.238;2022-09-09T11:08:01;23.70;;;14.00;;
56581;SDS011;42463;52.214;21.238;2022-09-09T11:10:32;20.10;;;12.90;;
56581;SDS011;42463;52.214;21.238;2022-09-09T11:13:04;24.80;;;14.30;;
56581;SDS011;42463;52.214;21.238;2022-09-09T11:15:36;19.10;;;13.20;;
56581;SDS011;42463;52.214;21.238;2022-09-09T11:18:06;17.60;;;11.80;;
56581;SDS011;42463;52.214;21.238;2022-09-09T11:20:36;20.20;;;12.30;;
56581;SDS011;42463;52.214;21.238;2022-09-09T11:23:03;22.30;;;13.20;;
56581;SDS011;42463;52.214;21.238;2022-09-09T11:25:34;21.80;;;14.40;;
56581;SDS011;42463;52.214;21.238;2022-09-09T11:31:04;25.50;;;14.70;;
56581;SDS011;42463;52.214;21.238;2022-09-09T11:36:46;22.20;;;14.60;;
56581;SDS011;42463;52.214;21.238;2022-09-09T11:39:33;21.40;;;14.40;;
56581;SDS011;42463;52.214;21.238;2022-09-09T11:42:12;25.10;;;14.40;;
56581;SDS011;42463;52.214;21.238;2022-09-09T11:44:41;19.90;;;13.40;;
56581;SDS011;42463;52.214;21.238;2022-09-09T11:47:16;22.70;;;14.90;;
56581;SDS011;42463;52.214;21.238;2022-09-09T11:49:46;23.20;;;14.40;;
56581;SDS011;42463;52.214;21.238;2022-09-09T11:52:18;21.50;;;14.50;;
56581;SDS011;42463;52.214;21.238;2022-09-09T11:54:47;21.00;;;14.20;;
56581;SDS011;42463;52.214;21.238;2022-09-09T11:57:16;25.30;;;15.30;;
56581;SDS011;42463;52.214;21.238;2022-09-09T11:59:55;21.40;;;13.40;;
56581;SDS011;42463;52.214;21.238;2022-09-09T12:02:22;25.00;;;14.40;;
56581;SDS011;42463;52.214;21.238;2022-09-09T12:04:48;20.40;;;13.80;;
56581;SDS011;42463;52.214;21.238;2022-09-09T12:07:28;23.90;;;14.90;;
56581;SDS011;42463;52.214;21.238;2022-09-09T12:09:57;21.90;;;13.80;;
56581;SDS011;42463;52.214;21.238;2022-09-09T12:12:30;24.20;;;15.20;;
56581;SDS011;42463;52.214;21.238;2022-09-09T12:15:02;23.90;;;15.40;;
56581;SDS011;42463;52.214;21.238;2022-09-09T12:17:43;24.00;;;15.00;;
56581;SDS011;42463;52.214;21.238;2022-09-09T12:20:11;20.50;;;14.90;;
56581;SDS011;42463;52.214;21.238;2022-09-09T12:22:40;23.80;;;14.30;;
56581;SDS011;42463;52.214;21.238;2022-09-09T12:25:17;21.70;;;14.40;;
56581;SDS011;42463;52.214;21.238;2022-09-09T12:27:51;21.50;;;13.20;;
56581;SDS011;42463;52.214;21.238;2022-09-09T12:30:25;22.90;;;14.30;;
56581;SDS011;42463;52.214;21.238;2022-09-09T12:33:33;21.90;;;13.60;;
56581;SDS011;42463;52.214;21.238;2022-09-09T12:35:58;23.70;;;14.50;;
56581;SDS011;42463;52.214;21.238;2022-09-09T12:38:26;24.40;;;14.80;;
56581;SDS011;42463;52.214;21.238;2022-09-09T12:40:56;24.10;;;15.90;;
56581;SDS011;42463;52.214;21.238;2022-09-09T12:43:22;25.80;;;15.40;;
56581;SDS011;42463;52.214;21.238;2022-09-09T12:45:48;24.70;;;14.70;;
56581;SDS011;42463;52.214;21.238;2022-09-09T12:48:18;25.60;;;15.60;;
56581;SDS011;42463;52.214;21.238;2022-09-09T12:50:45;23.50;;;15.40;;
56581;SDS011;42463;52.214;21.238;2022-09-09T12:53:12;23.30;;;14.80;;
56581;SDS011;42463;52.214;21.238;2022-09-09T12:55:50;25.00;;;15.40;;
56581;SDS011;42463;52.214;21.238;2022-09-09T12:58:17;23.80;;;15.20;;
56581;SDS011;42463;52.214;21.238;2022-09-09T13:00:49;18.40;;;11.60;;
56581;SDS011;42463;52.214;21.238;2022-09-09T13:03:17;24.50;;;16.20;;
56581;SDS011;42463;52.214;21.238;2022-09-09T13:05:43;22.60;;;15.30;;
56581;SDS011;42463;52.214;21.238;2022-09-09T13:08:09;25.70;;;15.30;;
56581;SDS011;42463;52.214;21.238;2022-09-09T13:10:36;22.20;;;15.70;;
56581;SDS011;42463;52.214;21.238;2022-09-09T13:13:02;28.50;;;16.20;;
56581;SDS011;42463;52.214;21.238;2022-09-09T13:15:28;22.60;;;15.50;;
56581;SDS011;42463;52.214;21.238;2022-09-09T13:17:54;25.10;;;15.70;;
56581;SDS011;42463;52.214;21.238;2022-09-09T13:20:22;25.40;;;16.10;;
56581;SDS011;42463;52.214;21.238;2022-09-09T13:22:47;28.30;;;16.70;;
56581;SDS011;42463;52.214;21.238;2022-09-09T13:25:19;22.70;;;15.50;;
56581;SDS011;42463;52.214;21.238;2022-09-09T13:27:53;25.50;;;16.70;;
56581;SDS011;42463;52.214;21.238;2022-09-09T13:30:23;27.70;;;16.80;;
56581;SDS011;42463;52.214;21.238;2022-09-09T13:33:00;28.00;;;15.80;;
56581;SDS011;42463;52.214;21.238;2022-09-09T13:35:27;27.30;;;16.90;;
56581;SDS011;42463;52.214;21.238;2022-09-09T13:37:51;24.30;;;15.50;;
56581;SDS011;42463;52.214;21.238;2022-09-09T13:40:17;26.60;;;16.00;;
56581;SDS011;42463;52.214;21.238;2022-09-09T13:42:43;29.50;;;17.90;;
56581;SDS011;42463;52.214;21.238;2022-09-09T13:45:16;25.70;;;15.90;;
56581;SDS011;42463;52.214;21.238;2022-09-09T13:47:43;26.50;;;16.50;;
56581;SDS011;42463;52.214;21.238;2022-09-09T13:50:19;28.40;;;17.40;;
56581;SDS011;42463;52.214;21.238;2022-09-09T13:52:45;29.00;;;17.30;;
56581;SDS011;42463;52.214;21.238;2022-09-09T13:55:11;26.30;;;15.90;;
56581;SDS011;42463;52.214;21.238;2022-09-09T13:57:35;30.10;;;17.20;;
56581;SDS011;42463;52.214;21.238;2022-09-09T14:00:00;31.60;;;17.50;;
56581;SDS011;42463;52.214;21.238;2022-09-09T14:02:25;27.90;;;17.00;;
56581;SDS011;42463;52.214;21.238;2022-09-09T14:04:50;28.80;;;17.50;;
56581;SDS011;42463;52.214;21.238;2022-09-09T14:07:17;24.90;;;16.10;;
56581;SDS011;42463;52.214;21.238;2022-09-09T14:09:42;29.30;;;17.80;;
56581;SDS011;42463;52.214;21.238;2022-09-09T14:12:11;26.30;;;16.90;;
56581;SDS011;42463;52.214;21.238;2022-09-09T14:14:36;29.10;;;17.60;;
56581;SDS011;42463;52.214;21.238;2022-09-09T14:17:01;28.70;;;18.00;;
56581;SDS011;42463;52.214;21.238;2022-09-09T14:19:25;34.90;;;20.10;;
56581;SDS011;42463;52.214;21.238;2022-09-09T14:21:50;30.50;;;19.10;;
56581;SDS011;42463;52.214;21.238;2022-09-09T14:24:14;28.40;;;16.80;;
56581;SDS011;42463;52.214;21.238;2022-09-09T14:26:38;29.70;;;18.20;;
56581;SDS011;42463;52.214;21.238;2022-09-09T14:29:03;27.10;;;17.90;;
56581;SDS011;42463;52.214;21.238;2022-09-09T14:31:27;25.00;;;16.80;;
56581;SDS011;42463;52.214;21.238;2022-09-09T14:33:52;28.10;;;16.60;;
56581;SDS011;42463;52.214;21.238;2022-09-09T14:36:16;28.60;;;17.50;;
56581;SDS011;42463;52.214;21.238;2022-09-09T14:38:41;27.40;;;16.80;;
56581;SDS011;42463;52.214;21.238;2022-09-09T14:41:05;26.70;;;16.80;;
56581;SDS011;42463;52.214;21.238;2022-09-09T14:43:32;27.50;;;17.40;;